Time;durP1;ratioP1;P1;durP2;ratioP2;P2;SDS_P1;SDS_P2;PMS_P1;PMS_P2;Temp;Humidity;BMP_temperature;BMP_pressure;BME280_temperature;BME280_humidity;BME280_pressure;Samples;Min_cycle;Max_cycle;Signal;HPM_P1;HPM_P2
2022/10/31 00:00:19;;;;;;;21.17;11.38;;;12.50;99.90;;;;;;5071459;28;20032;-50
2022/10/31 00:02:44;;;;;;;18.40;11.52;;;12.50;99.90;;;;;;5070753;28;20035;-48
2022/10/31 00:05:10;;;;;;;18.20;11.15;;;12.40;99.90;;;;;;5071378;28;20028;-44
2022/10/31 00:07:35;;;;;;;20.80;11.15;;;12.40;99.90;;;;;;5069714;28;20024;-47
2022/10/31 00:10:01;;;;;;;22.77;11.57;;;12.40;99.90;;;;;;5071055;28;20033;-47
2022/10/31 00:12:27;;;;;;;18.08;11.07;;;12.40;99.90;;;;;;5073184;28;20031;-48
2022/10/31 00:14:52;;;;;;;19.35;11.57;;;12.30;99.90;;;;;;5075372;28;20025;-45
2022/10/31 00:17:18;;;;;;;20.75;10.93;;;12.30;99.90;;;;;;5074617;28;20019;-49
2022/10/31 00:19:43;;;;;;;20.15;10.45;;;12.20;99.90;;;;;;5074992;28;20028;-47
2022/10/31 00:22:09;;;;;;;20.98;10.77;;;12.20;99.90;;;;;;5074708;28;20023;-46
2022/10/31 00:24:34;;;;;;;16.33;10.27;;;12.20;99.90;;;;;;5074976;28;20062;-46
2022/10/31 00:27:01;;;;;;;20.58;11.25;;;12.20;99.90;;;;;;5074682;28;20045;-47
2022/10/31 00:29:26;;;;;;;17.30;11.50;;;12.20;99.90;;;;;;5087234;23;20473;-53
2022/10/31 00:31:52;;;;;;;23.23;11.15;;;12.20;99.90;;;;;;5054514;28;20032;-50
2022/10/31 00:34:17;;;;;;;68.38;38.97;;;12.10;99.90;;;;;;5054477;28;20408;-52
2022/10/31 00:36:43;;;;;;;46.25;28.45;;;12.10;99.90;;;;;;5054832;28;20104;-54
2022/10/31 00:39:08;;;;;;;105.93;54.75;;;12.10;99.90;;;;;;5060858;28;20124;-49
2022/10/31 00:41:34;;;;;;;32.22;16.77;;;12.10;99.90;;;;;;5074732;28;20029;-51
2022/10/31 00:44:00;;;;;;;16.27;11.65;;;12.10;99.90;;;;;;5074507;28;20074;-51
2022/10/31 00:46:25;;;;;;;12.13;10.05;;;12.10;99.90;;;;;;5074709;28;20079;-54
2022/10/31 00:48:50;;;;;;;19.85;11.73;;;12.10;99.90;;;;;;5074677;28;20369;-49
2022/10/31 00:51:16;;;;;;;15.57;10.23;;;12.10;99.90;;;;;;5074633;28;20028;-49
2022/10/31 00:53:41;;;;;;;22.45;10.63;;;12.00;99.90;;;;;;5074232;28;20025;-53
2022/10/31 00:56:07;;;;;;;15.98;9.82;;;12.00;99.90;;;;;;5074850;28;20038;-49
2022/10/31 00:58:33;;;;;;;13.07;9.55;;;12.00;99.90;;;;;;5073215;28;20016;-50
2022/10/31 01:00:58;;;;;;;16.15;9.40;;;12.00;99.90;;;;;;5074549;28;20166;-52
2022/10/31 01:03:29;;;;;;;15.52;10.10;;;12.00;99.90;;;;;;5074221;28;20047;-50
2022/10/31 01:06:07;;;;;;;25.83;13.05;;;12.00;99.90;;;;;;5074533;28;20027;-52
2022/10/31 01:08:34;;;;;;;16.73;10.10;;;12.00;99.90;;;;;;5073926;28;20043;-53
2022/10/31 01:11:02;;;;;;;14.43;10.15;;;11.90;99.90;;;;;;5074210;28;20028;-53
2022/10/31 01:13:27;;;;;;;22.17;11.82;;;11.90;99.90;;;;;;5073959;28;20025;-52
2022/10/31 01:15:57;;;;;;;19.77;10.02;;;11.90;99.90;;;;;;5074216;28;20078;-52
2022/10/31 01:18:22;;;;;;;24.30;10.38;;;11.90;99.90;;;;;;5072639;28;20027;-49
2022/10/31 01:21:07;;;;;;;17.17;9.85;;;11.80;99.90;;;;;;5073716;28;20108;-53
2022/10/31 01:23:33;;;;;;;17.23;9.70;;;11.80;99.90;;;;;;5073292;28;20033;-55
2022/10/31 01:26:01;;;;;;;15.10;9.35;;;11.80;99.90;;;;;;5074479;28;20565;-49
2022/10/31 01:28:26;;;;;;;17.67;9.32;;;11.80;99.90;;;;;;5074008;28;20029;-53
2022/10/31 01:30:52;;;;;;;16.52;10.73;;;11.80;99.90;;;;;;5073904;28;20036;-53
2022/10/31 01:33:18;;;;;;;18.80;11.18;;;11.80;99.90;;;;;;5073699;28;20087;-53
2022/10/31 01:35:43;;;;;;;18.45;10.80;;;11.90;99.90;;;;;;5073961;28;20305;-50
2022/10/31 01:38:09;;;;;;;25.92;9.70;;;12.00;99.90;;;;;;5073739;28;20029;-50
2022/10/31 01:40:34;;;;;;;15.07;8.93;;;12.00;99.90;;;;;;5072256;28;20035;-54
2022/10/31 01:42:59;;;;;;;16.50;9.43;;;11.90;99.90;;;;;;5073480;28;20472;-50
2022/10/31 01:45:25;;;;;;;10.50;8.23;;;11.80;99.90;;;;;;5072389;28;20029;-51
2022/10/31 01:47:51;;;;;;;18.52;8.73;;;11.80;99.90;;;;;;5073709;28;20025;-55
2022/10/31 01:50:28;;;;;;;13.77;9.07;;;11.80;99.90;;;;;;5073694;28;20024;-51
2022/10/31 01:52:54;;;;;;;15.52;10.30;;;11.80;99.90;;;;;;5073463;28;20541;-49
2022/10/31 01:55:34;;;;;;;18.35;12.52;;;12.00;99.90;;;;;;5073760;28;20024;-49
2022/10/31 01:58:07;;;;;;;16.10;9.70;;;12.00;99.90;;;;;;5073547;28;20016;-52
2022/10/31 02:00:32;;;;;;;23.20;10.93;;;12.10;99.90;;;;;;5073639;28;20024;-48
2022/10/31 02:02:59;;;;;;;23.80;10.70;;;12.20;99.90;;;;;;5073344;28;20020;-52
2022/10/31 02:05:27;;;;;;;18.08;10.85;;;12.10;99.90;;;;;;5071951;28;20368;-53
2022/10/31 02:07:58;;;;;;;21.05;10.73;;;12.20;99.90;;;;;;5073492;28;20100;-53
2022/10/31 02:10:24;;;;;;;21.70;10.23;;;12.20;99.90;;;;;;5073502;28;20404;-50
2022/10/31 02:12:52;;;;;;;16.48;9.23;;;12.20;99.90;;;;;;5072987;28;20027;-47
2022/10/31 02:15:18;;;;;;;13.77;7.60;;;12.20;99.90;;;;;;5073288;28;20031;-51
2022/10/31 02:17:44;;;;;;;10.15;7.18;;;12.10;99.90;;;;;;5071740;28;20012;-52
2022/10/31 02:20:10;;;;;;;13.88;7.18;;;11.90;99.90;;;;;;5072581;28;20024;-54
2022/10/31 02:22:58;;;;;;;14.88;7.75;;;11.70;99.90;;;;;;5072945;28;20031;-54
2022/10/31 02:25:52;;;;;;;12.65;7.75;;;11.60;99.90;;;;;;5071826;28;20031;-55
2022/10/31 02:28:39;;;;;;;11.85;7.70;;;11.60;99.90;;;;;;5072565;28;20051;-51
2022/10/31 02:31:45;;;;;;;14.80;8.63;;;11.50;99.90;;;;;;5072799;28;20070;-50
2022/10/31 02:34:22;;;;;;;9.43;7.23;;;11.50;99.90;;;;;;5072325;28;20025;-52
2022/10/31 02:37:23;;;;;;;12.73;7.10;;;11.60;99.90;;;;;;5072600;28;20433;-47
2022/10/31 02:39:53;;;;;;;15.40;7.10;;;11.50;99.90;;;;;;5072558;28;20054;-52
2022/10/31 02:42:35;;;;;;;12.40;7.50;;;11.50;99.90;;;;;;5072461;28;20062;-49
2022/10/31 02:45:23;;;;;;;9.13;7.30;;;11.60;99.90;;;;;;5072903;28;20526;-50
2022/10/31 02:47:52;;;;;;;9.48;6.95;;;11.50;99.90;;;;;;5072396;28;20063;-49
2022/10/31 02:50:26;;;;;;;16.40;8.05;;;11.60;99.90;;;;;;5072155;28;20020;-51
2022/10/31 02:52:52;;;;;;;11.45;7.95;;;11.50;99.90;;;;;;5072181;28;20017;-52
2022/10/31 02:55:27;;;;;;;8.27;7.28;;;11.40;99.90;;;;;;5072349;28;20016;-53
2022/10/31 02:58:02;;;;;;;13.45;7.93;;;11.60;99.90;;;;;;5072463;28;20017;-51
2022/10/31 03:00:35;;;;;;;9.48;7.65;;;11.50;99.90;;;;;;5072274;28;20036;-53
2022/10/31 03:03:06;;;;;;;14.70;7.82;;;11.50;99.90;;;;;;5072226;28;20020;-55
2022/10/31 03:05:41;;;;;;;11.27;7.55;;;11.40;99.90;;;;;;5072231;28;20158;-52
2022/10/31 03:08:23;;;;;;;7.97;7.18;;;11.30;99.90;;;;;;5072206;28;20453;-52
2022/10/31 03:10:51;;;;;;;14.18;7.22;;;11.30;99.90;;;;;;5072177;28;20040;-49
2022/10/31 03:13:54;;;;;;;12.25;6.90;;;11.30;99.90;;;;;;5071927;28;20021;-53
2022/10/31 03:16:27;;;;;;;9.90;7.50;;;11.30;99.90;;;;;;5072471;28;20380;-51
2022/10/31 03:19:03;;;;;;;11.73;7.68;;;11.30;99.90;;;;;;5072365;28;20072;-53
2022/10/31 03:21:43;;;;;;;20.38;8.88;;;11.30;99.90;;;;;;5071886;28;20529;-53
2022/10/31 03:24:11;;;;;;;19.25;9.43;;;11.30;99.90;;;;;;5071749;28;20059;-52
2022/10/31 03:26:40;;;;;;;16.65;9.23;;;11.40;99.90;;;;;;5072228;28;20034;-51
2022/10/31 03:29:10;;;;;;;16.75;9.48;;;11.40;99.90;;;;;;5071966;28;20025;-51
2022/10/31 03:31:51;;;;;;;22.27;9.60;;;11.40;99.90;;;;;;5072365;28;20040;-51
2022/10/31 03:34:19;;;;;;;18.52;9.77;;;11.30;99.90;;;;;;5070500;28;20059;-51
2022/10/31 03:36:47;;;;;;;17.33;9.07;;;11.30;99.90;;;;;;5071861;28;20013;-54
2022/10/31 03:39:15;;;;;;;13.60;9.30;;;11.20;99.90;;;;;;5072000;28;20020;-49
2022/10/31 03:41:44;;;;;;;15.68;8.82;;;11.20;99.90;;;;;;5071953;28;20029;-52
2022/10/31 03:44:14;;;;;;;16.70;9.27;;;11.20;99.90;;;;;;5071489;28;20031;-49
2022/10/31 03:46:41;;;;;;;21.23;9.85;;;11.20;99.90;;;;;;5070972;28;20035;-49
2022/10/31 03:49:07;;;;;;;23.52;9.48;;;11.20;99.90;;;;;;5071508;28;20480;-52
2022/10/31 03:51:41;;;;;;;17.05;8.82;;;11.10;99.90;;;;;;5070326;28;20039;-51
2022/10/31 03:54:14;;;;;;;28.90;9.93;;;11.10;99.90;;;;;;5071740;28;20119;-52
2022/10/31 03:56:49;;;;;;;35.83;11.52;;;11.10;99.90;;;;;;5070580;28;20031;-51
2022/10/31 03:59:27;;;;;;;33.85;10.13;;;11.00;99.90;;;;;;5072044;28;20120;-52
2022/10/31 04:02:00;;;;;;;32.95;11.82;;;11.00;99.90;;;;;;5071570;28;20025;-48
2022/10/31 04:04:27;;;;;;;48.25;10.07;;;11.10;99.90;;;;;;5071689;28;20024;-54
2022/10/31 04:06:54;;;;;;;55.08;11.10;;;11.10;99.90;;;;;;5071744;28;20025;-50
2022/10/31 04:09:21;;;;;;;12.50;8.27;;;11.10;99.90;;;;;;5071570;28;20024;-55
2022/10/31 04:11:51;;;;;;;21.95;8.95;;;11.10;99.90;;;;;;5071393;28;20036;-51
2022/10/31 04:14:16;;;;;;;14.63;8.13;;;11.10;99.90;;;;;;5070146;28;20472;-52
2022/10/31 04:16:43;;;;;;;26.23;8.30;;;11.10;99.90;;;;;;5071438;28;20050;-57
2022/10/31 04:19:11;;;;;;;15.57;8.55;;;11.00;99.90;;;;;;5071442;28;20495;-51
2022/10/31 04:21:36;;;;;;;19.25;9.23;;;11.00;99.90;;;;;;5070801;28;20492;-50
2022/10/31 04:24:02;;;;;;;20.95;9.15;;;11.00;99.90;;;;;;5071199;28;20035;-49
2022/10/31 04:26:27;;;;;;;17.98;9.15;;;10.90;99.90;;;;;;5071310;28;20094;-50
2022/10/31 04:28:53;;;;;;;16.52;10.45;;;11.00;99.90;;;;;;5071127;28;20032;-49
2022/10/31 04:31:18;;;;;;;14.45;9.77;;;10.90;99.90;;;;;;5071358;28;20029;-52
2022/10/31 04:33:44;;;;;;;15.63;9.85;;;10.90;99.90;;;;;;5071016;28;20037;-50
2022/10/31 04:36:10;;;;;;;18.83;10.25;;;10.90;99.90;;;;;;5071091;28;20027;-51
2022/10/31 04:38:35;;;;;;;15.23;10.15;;;11.00;99.90;;;;;;5071104;28;20032;-50
2022/10/31 04:41:01;;;;;;;18.60;8.73;;;10.90;99.90;;;;;;5071449;28;20063;-49
2022/10/31 04:43:26;;;;;;;13.05;9.30;;;10.90;99.90;;;;;;5070954;28;20533;-50
2022/10/31 04:45:52;;;;;;;13.98;8.00;;;11.00;99.90;;;;;;5071176;28;20024;-54
2022/10/31 04:48:17;;;;;;;14.05;8.98;;;10.90;99.90;;;;;;5070993;28;20077;-49
2022/10/31 04:50:43;;;;;;;13.80;8.38;;;11.00;99.90;;;;;;5071068;28;20619;-51
2022/10/31 04:53:08;;;;;;;19.35;9.32;;;10.90;99.90;;;;;;5070984;28;20029;-50
2022/10/31 04:55:35;;;;;;;22.35;9.52;;;10.90;99.90;;;;;;5071381;28;20032;-52
2022/10/31 04:58:01;;;;;;;19.40;10.25;;;11.00;99.90;;;;;;5071503;28;20104;-54
2022/10/31 05:00:26;;;;;;;19.73;9.48;;;11.00;99.90;;;;;;5074410;28;20154;-53
2022/10/31 05:02:54;;;;;;;27.42;9.85;;;11.00;99.90;;;;;;5074237;28;20529;-48
2022/10/31 05:05:24;;;;;;;20.42;9.68;;;11.00;99.90;;;;;;5074325;28;20398;-52
2022/10/31 05:07:50;;;;;;;13.25;9.00;;;10.90;99.90;;;;;;5074489;28;20023;-52
2022/10/31 05:10:22;;;;;;;17.55;10.30;;;10.90;99.90;;;;;;5074345;28;20062;-55
2022/10/31 05:12:53;;;;;;;26.45;9.93;;;10.90;99.90;;;;;;5074225;28;20165;-49
2022/10/31 05:15:21;;;;;;;28.35;10.60;;;10.90;99.90;;;;;;5074468;28;20024;-51
2022/10/31 05:17:46;;;;;;;26.98;10.43;;;10.80;99.90;;;;;;5074210;28;20066;-55
2022/10/31 05:20:14;;;;;;;21.90;10.80;;;10.80;99.90;;;;;;5073569;28;20454;-51
2022/10/31 05:22:47;;;;;;;19.80;10.15;;;10.80;99.90;;;;;;5073733;28;20031;-56
2022/10/31 05:25:13;;;;;;;20.02;10.52;;;10.80;99.90;;;;;;5073826;28;20552;-50
2022/10/31 05:27:43;;;;;;;21.20;11.10;;;10.80;99.90;;;;;;5073795;28;20056;-50
2022/10/31 05:30:10;;;;;;;19.15;11.55;;;10.70;99.90;;;;;;5073369;28;20039;-51
2022/10/31 05:32:38;;;;;;;15.43;9.80;;;10.70;99.90;;;;;;5073290;28;20071;-50
2022/10/31 05:35:04;;;;;;;20.65;11.48;;;10.70;99.90;;;;;;5073698;28;20016;-50
2022/10/31 05:37:30;;;;;;;23.60;10.05;;;10.70;99.90;;;;;;5073372;28;20082;-51
2022/10/31 05:39:55;;;;;;;22.00;10.88;;;10.80;99.90;;;;;;5073519;28;20302;-51
2022/10/31 05:42:21;;;;;;;23.05;10.60;;;10.80;99.90;;;;;;5073290;28;20047;-50
2022/10/31 05:44:46;;;;;;;27.63;10.80;;;10.90;99.90;;;;;;5073547;28;20025;-52
2022/10/31 05:47:12;;;;;;;17.23;11.32;;;10.90;99.90;;;;;;5073290;28;20048;-50
2022/10/31 05:49:37;;;;;;;17.75;10.50;;;10.90;99.90;;;;;;5073648;28;20039;-50
2022/10/31 05:52:03;;;;;;;16.73;10.85;;;10.90;99.90;;;;;;5072934;28;20021;-49
2022/10/31 05:54:28;;;;;;;21.77;9.80;;;10.90;99.90;;;;;;5073734;28;20021;-50
2022/10/31 05:56:54;;;;;;;18.63;9.65;;;10.90;99.90;;;;;;5073250;28;20074;-50
2022/10/31 05:59:19;;;;;;;20.25;10.50;;;10.90;99.90;;;;;;5073698;28;20108;-52
2022/10/31 06:01:45;;;;;;;16.73;10.30;;;10.90;99.90;;;;;;5072945;28;20035;-49
2022/10/31 06:04:10;;;;;;;18.30;9.95;;;10.90;99.90;;;;;;5072955;28;20078;-52
2022/10/31 06:06:36;;;;;;;18.95;11.05;;;10.90;99.90;;;;;;5073020;28;20369;-53
2022/10/31 06:09:01;;;;;;;18.80;10.20;;;10.90;99.90;;;;;;5072664;28;20477;-52
2022/10/31 06:11:27;;;;;;;24.23;10.35;;;10.90;99.90;;;;;;5073239;28;20033;-49
2022/10/31 06:13:52;;;;;;;20.17;10.60;;;10.90;99.90;;;;;;5072564;28;20023;-51
2022/10/31 06:16:18;;;;;;;15.73;10.32;;;10.90;99.90;;;;;;5074123;28;20035;-51
2022/10/31 06:18:43;;;;;;;13.82;9.50;;;10.90;99.90;;;;;;5073537;28;20028;-54
2022/10/31 06:21:09;;;;;;;14.70;9.85;;;10.90;99.90;;;;;;5073621;28;20055;-55
2022/10/31 06:23:34;;;;;;;17.33;10.95;;;10.90;99.90;;;;;;5075088;28;20633;-49
2022/10/31 06:26:00;;;;;;;19.92;10.65;;;10.90;99.90;;;;;;5074600;28;20024;-53
2022/10/31 06:28:25;;;;;;;19.88;10.63;;;11.00;99.90;;;;;;5073999;28;20024;-50
2022/10/31 06:30:51;;;;;;;18.88;10.30;;;11.00;99.90;;;;;;5083392;23;20052;-55
2022/10/31 06:33:16;;;;;;;21.83;11.68;;;11.00;99.90;;;;;;5051872;28;20021;-54
2022/10/31 06:35:46;;;;;;;18.33;10.32;;;11.10;99.90;;;;;;5052795;28;20021;-51
2022/10/31 06:38:12;;;;;;;19.55;10.23;;;11.00;99.90;;;;;;5051592;28;20078;-49
2022/10/31 06:40:37;;;;;;;19.13;11.13;;;11.10;99.90;;;;;;5067439;28;20476;-54
2022/10/31 06:43:03;;;;;;;20.33;9.77;;;11.10;99.90;;;;;;5071213;28;20078;-51
2022/10/31 06:45:29;;;;;;;24.95;11.73;;;11.10;99.90;;;;;;5073196;28;20029;-53
2022/10/31 06:47:55;;;;;;;16.25;9.18;;;11.20;99.90;;;;;;5073158;28;20480;-55
2022/10/31 06:50:21;;;;;;;16.52;9.20;;;11.20;99.90;;;;;;5073159;28;20439;-51
2022/10/31 06:52:57;;;;;;;16.30;8.95;;;11.20;99.90;;;;;;5071110;28;20028;-56
2022/10/31 06:55:24;;;;;;;14.10;9.02;;;11.30;99.90;;;;;;5071134;28;20021;-55
2022/10/31 06:58:00;;;;;;;16.08;9.77;;;11.30;99.90;;;;;;5072115;28;20024;-57
2022/10/31 07:00:28;;;;;;;16.70;9.45;;;11.40;99.90;;;;;;5072033;28;20029;-57
2022/10/31 07:03:00;;;;;;;14.38;9.30;;;11.50;99.90;;;;;;5071833;28;20022;-52
2022/10/31 07:05:26;;;;;;;18.92;9.23;;;11.50;99.90;;;;;;5072316;28;20064;-56
2022/10/31 07:07:53;;;;;;;21.35;9.73;;;11.60;99.90;;;;;;5072023;28;20395;-54
2022/10/31 07:10:19;;;;;;;11.45;8.23;;;11.60;99.90;;;;;;5071803;28;20017;-52
2022/10/31 07:12:44;;;;;;;19.25;8.98;;;11.70;99.90;;;;;;5071802;28;20107;-54
2022/10/31 07:15:10;;;;;;;15.95;8.48;;;11.90;99.90;;;;;;5071915;28;20032;-55
2022/10/31 07:17:35;;;;;;;13.02;7.97;;;12.00;99.90;;;;;;5071656;28;20023;-58
2022/10/31 07:20:01;;;;;;;21.45;8.68;;;12.10;99.90;;;;;;5069992;28;20021;-54
2022/10/31 07:22:35;;;;;;;10.85;7.63;;;12.20;99.90;;;;;;5069532;28;20040;-56
2022/10/31 07:25:01;;;;;;;16.27;8.50;;;12.20;99.90;;;;;;5071867;28;20032;-54
2022/10/31 07:27:26;;;;;;;13.95;8.38;;;12.30;99.90;;;;;;5071711;28;20090;-56
2022/10/31 07:29:52;;;;;;;14.63;8.90;;;12.40;99.90;;;;;;5071276;28;20553;-54
2022/10/31 07:32:17;;;;;;;17.17;9.32;;;12.40;99.90;;;;;;5071184;28;20028;-55
2022/10/31 07:34:43;;;;;;;19.05;8.52;;;12.50;99.90;;;;;;5071738;28;20024;-54
2022/10/31 07:37:08;;;;;;;18.83;9.10;;;12.50;99.90;;;;;;5073058;28;20052;-61
2022/10/31 07:39:34;;;;;;;19.40;8.68;;;12.40;99.90;;;;;;5076764;28;20514;-61
2022/10/31 07:41:59;;;;;;;20.52;9.05;;;12.40;99.90;;;;;;5072675;28;20031;-59
2022/10/31 07:44:25;;;;;;;18.13;9.98;;;12.40;99.90;;;;;;5071100;28;20440;-62
2022/10/31 07:46:50;;;;;;;17.67;9.23;;;12.30;99.90;;;;;;5072615;28;20028;-58
2022/10/31 07:49:16;;;;;;;16.60;9.00;;;12.30;99.90;;;;;;5072665;28;20016;-57
2022/10/31 07:51:41;;;;;;;13.68;8.40;;;12.30;99.90;;;;;;5071717;28;20373;-59
2022/10/31 07:54:07;;;;;;;13.45;9.30;;;12.30;99.90;;;;;;5072800;28;20025;-60
2022/10/31 07:56:33;;;;;;;15.98;9.20;;;12.30;99.90;;;;;;5072887;28;20021;-58
2022/10/31 07:58:58;;;;;;;18.42;9.40;;;12.30;99.90;;;;;;5087351;28;20052;-54
2022/10/31 08:01:24;;;;;;;14.55;9.07;;;12.30;99.90;;;;;;5088042;28;20109;-57
2022/10/31 08:03:50;;;;;;;17.40;8.77;;;12.40;99.90;;;;;;5084320;28;20051;-59
2022/10/31 08:06:18;;;;;;;20.55;9.27;;;12.50;99.90;;;;;;5084887;28;20044;-60
2022/10/31 08:08:44;;;;;;;12.63;8.75;;;12.60;99.90;;;;;;5089059;28;20033;-56
2022/10/31 08:11:09;;;;;;;18.75;9.73;;;12.60;99.90;;;;;;5090078;28;20130;-51
2022/10/31 08:13:35;;;;;;;18.65;9.13;;;12.70;99.90;;;;;;5089057;28;20029;-54
2022/10/31 08:16:03;;;;;;;15.20;9.88;;;12.60;99.90;;;;;;5091730;28;20008;-55
2022/10/31 08:18:32;;;;;;;13.68;8.77;;;12.70;99.90;;;;;;5088272;28;20043;-53
2022/10/31 08:20:58;;;;;;;15.30;8.48;;;12.70;99.90;;;;;;5087908;28;20035;-53
2022/10/31 08:23:23;;;;;;;12.77;8.25;;;12.60;99.90;;;;;;5086817;28;20028;-56
2022/10/31 08:25:49;;;;;;;19.83;8.93;;;12.60;99.90;;;;;;5074327;28;20029;-55
2022/10/31 08:28:15;;;;;;;17.45;9.20;;;12.70;99.90;;;;;;5086665;28;20033;-61
2022/10/31 08:30:41;;;;;;;19.05;8.23;;;12.70;99.90;;;;;;5091313;28;20024;-55
2022/10/31 08:33:14;;;;;;;11.85;8.18;;;12.90;99.90;;;;;;5091622;28;20040;-58
2022/10/31 08:35:40;;;;;;;18.02;8.45;;;12.90;99.90;;;;;;5092680;28;20110;-57
2022/10/31 08:38:08;;;;;;;19.88;10.05;;;13.00;99.90;;;;;;5090944;28;20054;-59
2022/10/31 08:40:35;;;;;;;18.75;9.73;;;13.10;99.90;;;;;;5091696;28;20035;-61
2022/10/31 08:43:06;;;;;;;20.25;9.82;;;13.20;99.90;;;;;;5090104;28;20020;-56
2022/10/31 08:45:33;;;;;;;17.85;8.02;;;13.30;99.90;;;;;;5088933;28;20068;-57
2022/10/31 08:48:05;;;;;;;13.27;7.82;;;13.30;99.90;;;;;;5088291;28;20020;-57
2022/10/31 08:50:33;;;;;;;14.57;8.00;;;13.30;99.90;;;;;;5076069;28;20029;-54
2022/10/31 08:53:12;;;;;;;15.88;9.20;;;13.20;99.90;;;;;;5087351;28;20031;-54
2022/10/31 08:55:39;;;;;;;16.15;8.20;;;13.20;99.90;;;;;;5092263;28;20088;-54
2022/10/31 08:58:07;;;;;;;15.60;8.13;;;13.20;99.90;;;;;;5085780;28;20035;-55
2022/10/31 09:00:33;;;;;;;17.70;8.25;;;13.20;99.90;;;;;;5089147;28;20017;-60
2022/10/31 09:03:01;;;;;;;12.50;8.00;;;13.30;99.90;;;;;;5083074;28;20032;-54
2022/10/31 09:05:27;;;;;;;15.32;8.43;;;13.40;99.90;;;;;;5093377;28;20031;-57
2022/10/31 09:08:00;;;;;;;15.93;7.55;;;13.50;99.90;;;;;;5090372;28;20044;-56
2022/10/31 09:10:27;;;;;;;15.25;8.20;;;13.70;99.90;;;;;;5087101;28;20017;-50
2022/10/31 09:12:57;;;;;;;18.40;7.45;;;13.90;99.90;;;;;;5089348;28;20028;-57
2022/10/31 09:15:23;;;;;;;12.50;6.93;;;14.00;99.90;;;;;;5088622;28;20025;-55
2022/10/31 09:17:49;;;;;;;16.60;6.55;;;14.10;99.90;;;;;;5086933;28;20020;-54
2022/10/31 09:20:14;;;;;;;16.42;7.72;;;14.10;99.90;;;;;;5087203;28;19997;-50
2022/10/31 09:22:42;;;;;;;9.90;6.85;;;14.00;99.90;;;;;;5087884;28;20085;-58
2022/10/31 09:25:08;;;;;;;20.30;7.25;;;13.90;99.90;;;;;;5087071;28;20029;-58
2022/10/31 09:27:33;;;;;;;16.40;7.47;;;14.00;99.90;;;;;;5084732;28;20025;-58
2022/10/31 09:29:59;;;;;;;13.52;6.70;;;14.10;99.90;;;;;;5084449;28;20036;-55
2022/10/31 09:32:24;;;;;;;14.80;7.70;;;14.00;99.90;;;;;;5082880;28;20107;-57
2022/10/31 09:34:50;;;;;;;16.20;7.35;;;14.20;99.90;;;;;;5079937;28;20070;-57
2022/10/31 09:37:16;;;;;;;16.40;7.35;;;14.10;99.90;;;;;;5080892;28;20035;-57
2022/10/31 09:39:41;;;;;;;10.32;7.10;;;14.40;99.90;;;;;;5074270;28;20025;-58
2022/10/31 09:42:41;;;;;;;11.43;6.55;;;14.50;99.90;;;;;;5071695;28;20068;-57
2022/10/31 09:45:44;;;;;;;11.75;6.90;;;14.80;99.90;;;;;;5059383;28;20033;-54
2022/10/31 09:48:33;;;;;;;13.75;6.30;;;15.00;99.90;;;;;;5058227;28;20029;-57
2022/10/31 09:51:05;;;;;;;12.55;6.25;;;15.10;99.90;;;;;;5072501;28;20029;-59
2022/10/31 09:53:37;;;;;;;13.75;6.50;;;15.10;99.90;;;;;;5073577;28;20028;-60
2022/10/31 09:56:08;;;;;;;12.07;6.65;;;15.10;99.90;;;;;;5073674;28;20388;-54
2022/10/31 09:58:39;;;;;;;17.15;7.43;;;15.10;99.90;;;;;;5072175;28;20419;-60
2022/10/31 10:01:06;;;;;;;14.18;8.05;;;15.20;99.90;;;;;;5053300;28;20033;-58
2022/10/31 10:03:37;;;;;;;27.90;8.02;;;15.20;99.90;;;;;;5053186;28;20086;-58
2022/10/31 10:06:38;;;;;;;16.98;7.28;;;15.00;99.90;;;;;;5053361;28;20514;-56
2022/10/31 10:09:03;;;;;;;14.15;7.88;;;14.90;99.90;;;;;;5040742;28;20075;-58
2022/10/31 10:12:03;;;;;;;16.33;8.45;;;14.80;99.90;;;;;;5053175;28;20484;-56
2022/10/31 10:14:42;;;;;;;15.45;6.43;;;14.80;99.90;;;;;;5053028;28;20026;-59
2022/10/31 10:17:14;;;;;;;18.67;8.57;;;14.80;99.90;;;;;;5052893;28;20104;-58
2022/10/31 10:19:48;;;;;;;14.00;6.82;;;14.80;99.90;;;;;;5052989;28;20024;-58
2022/10/31 10:22:51;;;;;;;15.75;7.90;;;15.00;99.90;;;;;;5052944;28;20055;-58
2022/10/31 10:25:23;;;;;;;14.57;6.95;;;15.10;99.90;;;;;;5055549;28;20108;-58
2022/10/31 10:27:48;;;;;;;23.38;7.45;;;15.10;99.90;;;;;;5052997;28;20028;-58
2022/10/31 10:30:23;;;;;;;15.43;8.15;;;15.30;99.90;;;;;;5051638;28;20032;-60
2022/10/31 10:32:52;;;;;;;93.90;59.03;;;15.40;99.90;;;;;;5067072;28;20032;-55
2022/10/31 10:35:34;;;;;;;61.90;40.00;;;15.50;99.90;;;;;;5069321;28;20025;-57
2022/10/31 10:38:30;;;;;;;142.18;85.88;;;15.50;99.90;;;;;;5052583;28;20176;-60
2022/10/31 10:41:00;;;;;;;16.30;9.95;;;15.60;99.90;;;;;;5069926;28;20093;-60
2022/10/31 10:43:37;;;;;;;16.70;8.50;;;15.70;99.90;;;;;;5072333;28;20029;-55
2022/10/31 10:49:06;;;;;;;;;;;15.80;99.90;;;;;;5072676;28;20112;-56
2022/10/31 10:51:47;;;;;;;19.80;8.13;;;16.00;99.90;;;;;;5071176;28;19908;-57
2022/10/31 10:54:37;;;;;;;18.60;8.55;;;16.10;99.90;;;;;;5066496;28;20493;-55
2022/10/31 10:57:23;;;;;;;14.40;8.15;;;16.20;99.90;;;;;;5061168;28;20025;-56
2022/10/31 10:59:51;;;;;;;22.67;7.80;;;16.20;99.90;;;;;;5072173;28;20437;-53
2022/10/31 11:02:22;;;;;;;12.52;7.20;;;16.30;99.90;;;;;;5075636;28;20031;-59
2022/10/31 11:04:55;;;;;;;12.25;7.28;;;16.40;99.90;;;;;;5079615;28;20086;-60
2022/10/31 11:07:21;;;;;;;15.18;7.78;;;16.40;99.90;;;;;;5079070;28;20050;-60
2022/10/31 11:09:46;;;;;;;14.45;8.07;;;16.50;99.90;;;;;;5064997;28;20515;-54
2022/10/31 11:12:28;;;;;;;17.75;6.80;;;16.60;99.90;;;;;;5071656;28;20448;-53
2022/10/31 11:15:16;;;;;;;17.73;7.57;;;16.70;99.90;;;;;;5072194;28;20107;-58
2022/10/31 11:17:42;;;;;;;22.65;7.78;;;16.70;99.90;;;;;;5052280;28;20048;-57
2022/10/31 11:20:13;;;;;;;11.82;7.10;;;16.80;99.90;;;;;;5071660;28;20055;-57
2022/10/31 11:22:44;;;;;;;14.80;8.63;;;16.70;99.90;;;;;;5073896;28;20075;-60
2022/10/31 11:25:26;;;;;;;18.33;7.20;;;16.70;99.90;;;;;;5079614;28;20059;-57
2022/10/31 11:28:04;;;;;;;13.45;6.97;;;16.70;99.90;;;;;;5073254;28;20025;-57
2022/10/31 11:30:35;;;;;;;11.45;6.60;;;16.70;99.90;;;;;;5070486;28;20029;-55
2022/10/31 11:33:01;;;;;;;19.25;6.68;;;16.80;99.90;;;;;;5060228;28;20017;-57
2022/10/31 11:35:27;;;;;;;16.45;7.30;;;16.70;99.90;;;;;;5057646;28;20025;-58
2022/10/31 11:37:54;;;;;;;19.50;7.82;;;16.80;99.90;;;;;;5057317;28;20033;-54
2022/10/31 11:40:25;;;;;;;10.93;5.57;;;16.80;99.90;;;;;;5072060;28;20038;-55
2022/10/31 11:42:53;;;;;;;15.38;6.10;;;16.80;99.90;;;;;;5071516;28;20028;-57
2022/10/31 11:45:33;;;;;;;11.98;6.32;;;16.90;99.90;;;;;;5071856;28;20035;-55
2022/10/31 11:48:00;;;;;;;10.40;6.28;;;17.00;99.90;;;;;;5070604;28;20021;-59
2022/10/31 11:50:39;;;;;;;14.98;5.70;;;17.00;99.90;;;;;;5071042;28;20027;-59
2022/10/31 11:53:15;;;;;;;10.13;4.78;;;17.10;99.90;;;;;;5052956;28;20112;-56
2022/10/31 11:55:41;;;;;;;18.67;6.60;;;17.30;99.90;;;;;;5056635;28;20527;-58
2022/10/31 11:58:24;;;;;;;9.80;5.57;;;17.30;99.90;;;;;;5056629;28;20021;-54
2022/10/31 12:00:55;;;;;;;13.52;6.57;;;17.40;99.90;;;;;;5051289;28;20025;-54
2022/10/31 12:03:33;;;;;;;13.95;6.10;;;17.30;99.90;;;;;;5054071;28;20029;-56
2022/10/31 12:06:19;;;;;;;13.07;5.72;;;17.40;99.90;;;;;;5058790;28;20115;-56
2022/10/31 12:08:45;;;;;;;13.15;6.68;;;17.40;99.90;;;;;;5054160;28;20028;-56
2022/10/31 12:11:30;;;;;;;16.52;6.70;;;17.40;99.90;;;;;;5055119;28;20031;-55
2022/10/31 12:14:23;;;;;;;11.13;5.90;;;17.50;99.90;;;;;;5056022;28;20029;-56
2022/10/31 12:17:07;;;;;;;11.77;7.88;;;17.50;99.90;;;;;;5075072;28;20029;-53
2022/10/31 12:19:46;;;;;;;15.52;7.28;;;17.50;99.90;;;;;;5074612;28;20032;-55
2022/10/31 12:22:18;;;;;;;14.18;6.43;;;17.60;99.90;;;;;;5073344;28;20119;-58
2022/10/31 12:24:55;;;;;;;10.10;5.38;;;17.70;99.90;;;;;;5074759;28;20503;-56
2022/10/31 12:27:21;;;;;;;13.40;5.60;;;17.80;99.90;;;;;;5074768;28;20076;-52
2022/10/31 12:29:49;;;;;;;14.55;6.60;;;17.90;99.90;;;;;;5093952;23;20037;-52
2022/10/31 12:32:29;;;;;;;14.60;5.78;;;18.00;99.90;;;;;;5073103;28;20028;-52
2022/10/31 12:35:20;;;;;;;12.93;5.13;;;18.00;99.90;;;;;;5074492;28;20047;-50
2022/10/31 12:37:45;;;;;;;24.67;6.07;;;17.90;99.90;;;;;;5073969;28;20024;-52
2022/10/31 12:40:49;;;;;;;10.05;5.53;;;17.80;99.90;;;;;;5079708;28;20102;-52
2022/10/31 12:43:21;;;;;;;24.67;5.88;;;17.90;99.90;;;;;;5074247;28;20404;-50
2022/10/31 12:45:56;;;;;;;14.90;5.95;;;17.90;99.90;;;;;;5078624;28;20021;-54
2022/10/31 12:48:59;;;;;;;16.73;6.45;;;17.90;99.90;;;;;;5094801;28;20020;-52
2022/10/31 12:51:39;;;;;;;16.27;5.78;;;17.80;99.90;;;;;;5093409;28;20032;-50
2022/10/31 12:54:33;;;;;;;13.52;5.60;;;17.80;99.90;;;;;;5094035;28;20029;-50